createdAt,value
2023-03-17T00:00:44.382Z,5.77
2023-03-17T00:06:07.214Z,5.80
2023-03-17T00:11:28.352Z,5.73
2023-03-17T00:16:51.426Z,5.69
2023-03-17T00:22:18.073Z,5.67
2023-03-17T00:27:39.037Z,5.67
2023-03-17T00:33:00.152Z,5.62
2023-03-17T00:38:22.167Z,5.59
2023-03-17T00:43:42.982Z,5.56
2023-03-17T00:49:21.065Z,5.52
2023-03-17T00:54:41.814Z,5.56
2023-03-17T01:00:04.412Z,5.60
2023-03-17T01:05:26.458Z,5.59
2023-03-17T01:10:47.907Z,5.54
2023-03-17T01:16:12.613Z,5.39
2023-03-17T01:21:33.333Z,5.35
2023-03-17T01:26:53.804Z,5.31
2023-03-17T01:32:14.881Z,5.21
2023-03-17T01:37:35.467Z,5.09
2023-03-17T01:43:10.996Z,5.04
2023-03-17T01:48:37.318Z,4.99
2023-03-17T01:54:04.926Z,4.94
2023-03-17T01:59:31.722Z,4.93
2023-03-17T02:04:53.102Z,4.98
2023-03-17T02:10:16.323Z,4.97
2023-03-17T02:15:40.266Z,4.98
2023-03-17T02:21:32.688Z,5.02
2023-03-17T02:26:57.510Z,5.00
2023-03-17T02:32:19.363Z,5.04
2023-03-17T02:37:40.315Z,5.01
2023-03-17T02:43:02.389Z,5.05
2023-03-17T02:48:24.239Z,5.08
2023-03-17T02:53:50.985Z,5.09
2023-03-17T02:59:11.732Z,5.08
2023-03-17T03:04:32.659Z,5.18
2023-03-17T03:09:53.275Z,5.17
2023-03-17T03:15:14.578Z,5.13
2023-03-17T03:20:36.341Z,5.07
2023-03-17T03:25:57.292Z,5.08
2023-03-17T03:31:18.105Z,5.07
2023-03-17T03:36:38.802Z,5.13
2023-03-17T03:41:59.704Z,5.11
2023-03-17T03:47:20.396Z,5.15
2023-03-17T03:52:41.528Z,5.16
2023-03-17T03:58:01.966Z,5.19
2023-03-17T04:03:22.851Z,5.17
2023-03-17T04:08:43.360Z,5.19
2023-03-17T04:14:04.191Z,5.19
2023-03-17T04:19:25.642Z,5.16
2023-03-17T04:24:46.614Z,5.17
2023-03-17T04:30:08.841Z,5.17
2023-03-17T04:43:31.423Z,5.15
2023-03-17T04:48:53.337Z,5.20
2023-03-17T04:54:13.793Z,5.23
2023-03-17T04:59:34.344Z,5.16
2023-03-17T05:04:54.830Z,5.12
2023-03-17T05:10:15.977Z,5.12
2023-03-17T05:15:36.691Z,5.09
2023-03-17T05:20:57.777Z,5.04
2023-03-17T05:26:18.659Z,5.05
2023-03-17T05:31:39.238Z,5.07
2023-03-17T05:37:00.107Z,5.08
2023-03-17T05:42:21.275Z,5.03
2023-03-17T05:47:42.028Z,5.02
2023-03-17T05:53:03.166Z,4.98
2023-03-17T05:58:23.670Z,5.00
2023-03-17T06:03:44.679Z,5.01
2023-03-17T06:09:06.044Z,5.04
2023-03-17T06:14:27.321Z,5.04
2023-03-17T06:19:49.490Z,5.05
2023-03-17T06:25:11.574Z,5.10
2023-03-17T06:30:33.798Z,5.15
2023-03-17T06:35:54.627Z,5.24
2023-03-17T06:41:15.420Z,5.37
2023-03-17T06:46:36.625Z,5.48
2023-03-17T06:51:57.247Z,5.58
2023-03-17T06:57:17.833Z,5.61
2023-03-17T07:02:38.499Z,5.55
2023-03-17T07:07:59.652Z,5.51
2023-03-17T07:13:21.032Z,5.52
2023-03-17T07:18:41.947Z,5.63
2023-03-17T07:24:02.547Z,5.77
2023-03-17T07:29:23.446Z,5.86
2023-03-17T07:34:43.935Z,6.04
2023-03-17T07:40:05.198Z,6.12
2023-03-17T07:45:27.899Z,6.14
2023-03-17T07:50:48.766Z,6.22
2023-03-17T07:56:09.802Z,6.32
2023-03-17T08:01:31.428Z,6.40
2023-03-17T08:06:52.232Z,6.33
2023-03-17T08:12:13.433Z,6.38
2023-03-17T08:17:36.547Z,6.59
2023-03-17T08:22:57.149Z,6.89
2023-03-17T08:28:17.589Z,7.02
2023-03-17T08:33:39.829Z,7.33
2023-03-17T08:39:00.608Z,7.29
2023-03-17T08:44:21.815Z,7.44
2023-03-17T08:49:43.718Z,7.53
2023-03-17T08:55:04.692Z,7.63
2023-03-17T09:00:27.009Z,7.65
2023-03-17T09:05:48.756Z,7.69
2023-03-17T09:11:13.072Z,7.77
2023-03-17T09:16:34.346Z,8.09
2023-03-17T09:21:55.202Z,7.98
2023-03-17T09:27:15.601Z,7.93
2023-03-17T09:32:36.245Z,7.78
2023-03-17T09:37:57.236Z,7.70
2023-03-17T09:43:56.709Z,7.68
2023-03-17T09:49:22.756Z,7.76
2023-03-17T09:54:45.736Z,8.11
2023-03-17T10:00:14.613Z,8.25
2023-03-17T10:05:36.453Z,8.08
2023-03-17T10:11:14.814Z,8.20
2023-03-17T10:16:54.752Z,8.22
2023-03-17T10:22:25.297Z,8.05
2023-03-17T10:27:55.689Z,7.79
2023-03-17T10:33:16.056Z,7.55
2023-03-17T10:38:36.940Z,7.57
2023-03-17T10:43:58.326Z,7.80
2023-03-17T10:49:19.852Z,7.97
2023-03-17T10:54:40.442Z,8.26
2023-03-17T11:00:02.067Z,8.33
2023-03-17T11:05:29.170Z,8.30
2023-03-17T11:10:56.680Z,8.36
2023-03-17T11:16:24.037Z,8.58
2023-03-17T11:22:21.878Z,8.50
2023-03-17T11:28:16.990Z,8.58
2023-03-17T11:34:01.781Z,8.56
2023-03-17T11:39:27.317Z,8.61
2023-03-17T11:45:19.734Z,8.57
2023-03-17T11:50:53.240Z,8.54
2023-03-17T11:56:37.079Z,8.50
2023-03-17T12:02:39.582Z,8.27
2023-03-17T12:08:12.262Z,7.96
2023-03-17T12:13:49.774Z,7.97
2023-03-17T12:19:19.249Z,7.96
2023-03-17T12:24:51.295Z,7.86
2023-03-17T12:30:27.890Z,8.12
2023-03-17T12:35:49.562Z,8.24
2023-03-17T12:41:16.290Z,8.44
2023-03-17T12:46:43.364Z,8.47
2023-03-17T12:52:34.287Z,8.46
2023-03-17T12:58:25.350Z,9.00
2023-03-17T13:04:12.854Z,9.36
2023-03-17T13:09:35.730Z,9.47
2023-03-17T13:14:57.873Z,9.48
2023-03-17T13:20:20.796Z,9.52
2023-03-17T13:25:45.602Z,9.86
2023-03-17T13:31:28.374Z,10.82
2023-03-17T13:37:01.382Z,11.61
2023-03-17T13:42:54.023Z,11.82
2023-03-17T13:48:33.033Z,11.86
2023-03-17T13:53:57.337Z,11.44
2023-03-17T13:59:20.542Z,16.01
2023-03-17T14:04:52.677Z,21.22
2023-03-17T14:10:19.448Z,21.12
2023-03-17T14:16:03.550Z,22.14
2023-03-17T14:21:29.542Z,25.93
2023-03-17T14:26:52.377Z,27.22
2023-03-17T14:32:16.036Z,26.32
2023-03-17T14:37:38.018Z,20.09
2023-03-17T14:42:58.685Z,16.53
2023-03-17T14:48:26.896Z,14.97
2023-03-17T14:53:47.727Z,14.88
2023-03-17T14:59:25.354Z,13.63
2023-03-17T15:04:54.505Z,12.26
2023-03-17T15:10:17.886Z,11.52
2023-03-17T15:15:41.494Z,10.95
2023-03-17T15:21:01.954Z,10.87
2023-03-17T15:26:30.484Z,10.37
2023-03-17T15:31:51.266Z,10.08
2023-03-17T15:37:26.922Z,9.94
2023-03-17T15:42:47.998Z,10.01
2023-03-17T15:48:23.999Z,9.92
2023-03-17T15:53:45.042Z,10.01
2023-03-17T15:59:05.455Z,10.05
2023-03-17T16:04:26.401Z,10.09
2023-03-17T16:09:47.733Z,10.14
2023-03-17T16:15:22.553Z,10.11
2023-03-17T16:20:46.959Z,9.94
2023-03-17T16:26:15.587Z,9.89
2023-03-17T16:31:37.170Z,9.77
2023-03-17T16:36:58.359Z,9.72
2023-03-17T16:42:23.176Z,9.68
2023-03-17T16:47:43.909Z,9.44
2023-03-17T16:53:04.414Z,9.19
2023-03-17T16:58:36.870Z,8.92
2023-03-17T17:03:57.554Z,8.73
2023-03-17T17:09:18.732Z,8.55
2023-03-17T17:14:39.285Z,8.27
2023-03-17T17:20:02.058Z,8.20
2023-03-17T17:25:24.254Z,8.21
2023-03-17T17:30:47.877Z,8.20
2023-03-17T17:36:15.523Z,8.29
2023-03-17T17:41:36.558Z,8.25
2023-03-17T17:46:57.138Z,8.27
2023-03-17T17:52:18.421Z,8.30
2023-03-17T17:57:39.138Z,8.28
2023-03-17T18:03:00.366Z,8.38
2023-03-17T18:08:21.692Z,8.38
2023-03-17T18:13:42.583Z,8.38
2023-03-17T18:19:04.543Z,8.45
2023-03-17T18:24:24.968Z,8.42
2023-03-17T18:29:47.264Z,8.40
2023-03-17T18:35:14.054Z,8.25
2023-03-17T18:40:35.769Z,8.12
2023-03-17T18:45:59.734Z,7.99
2023-03-17T18:51:20.526Z,7.95
2023-03-17T18:56:41.310Z,7.86
2023-03-17T19:02:01.973Z,7.91
2023-03-17T19:07:22.444Z,8.01
2023-03-17T19:12:45.277Z,8.00
2023-03-17T19:18:06.881Z,7.84
2023-03-17T19:23:27.559Z,7.76
2023-03-17T19:28:48.326Z,7.59
2023-03-17T19:34:10.218Z,7.53
2023-03-17T19:39:31.523Z,7.42
2023-03-17T19:44:52.215Z,7.42
2023-03-17T19:50:13.492Z,7.45
2023-03-17T19:55:34.083Z,7.58
2023-03-17T20:00:54.897Z,7.66
2023-03-17T20:06:16.215Z,7.59
2023-03-17T20:11:37.103Z,7.59
2023-03-17T20:16:57.768Z,7.64
2023-03-17T20:22:18.614Z,7.63
2023-03-17T20:27:40.289Z,7.71
2023-03-17T20:33:01.258Z,7.69
2023-03-17T20:38:22.431Z,7.77
2023-03-17T20:43:43.907Z,7.81
2023-03-17T20:49:06.015Z,7.91
2023-03-17T20:54:26.649Z,7.98
2023-03-17T20:59:47.428Z,8.07
2023-03-17T21:05:12.485Z,8.13
2023-03-17T21:10:35.100Z,8.25
2023-03-17T21:15:56.737Z,8.19
2023-03-17T21:21:19.029Z,8.35
2023-03-17T21:26:40.180Z,8.37
2023-03-17T21:32:02.060Z,8.40
2023-03-17T21:37:22.857Z,8.35
2023-03-17T21:42:43.871Z,8.24
2023-03-17T21:48:04.845Z,8.20
2023-03-17T21:53:25.810Z,8.24
2023-03-17T21:58:48.920Z,8.23
2023-03-17T22:04:10.826Z,8.27
2023-03-17T22:09:31.597Z,8.27
2023-03-17T22:14:52.254Z,8.24
2023-03-17T22:20:13.000Z,8.28
2023-03-17T22:25:35.127Z,8.28
2023-03-17T22:30:56.687Z,8.39
2023-03-17T22:36:18.052Z,8.50
2023-03-17T22:41:39.191Z,8.51
2023-03-17T22:54:31.588Z,8.52
2023-03-17T22:59:52.424Z,8.56
2023-03-17T23:05:13.868Z,8.59
2023-03-17T23:10:34.962Z,8.67
2023-03-17T23:15:56.641Z,8.76
2023-03-17T23:21:26.485Z,8.71
2023-03-17T23:26:47.456Z,8.81
2023-03-17T23:32:09.590Z,8.83
2023-03-17T23:37:31.752Z,8.89
2023-03-17T23:42:54.468Z,8.73
2023-03-17T23:48:20.221Z,8.63
2023-03-17T23:53:41.836Z,8.46
2023-03-17T23:59:04.159Z,8.34
